Terminal Aerodrome Forecast
Issued by NWS Sioux Falls, SD

Home | Current Version | Previous Version | Graphics & Text | Print | Product List | Glossary Off
Versions: 1 2 3 4 5 6 7 8 9 10 11 12 13 14

439
FTUS43 KFSD 151615 AAA
TAFHON
TAF AMD
KHON 151615Z 1516/1612 33020G27KT P6SM BKN025
     FM151800 33019G28KT P6SM BKN015
     FM152300 33015G23KT P6SM BKN025
     FM160100 34014KT P6SM SCT040=

USA.gov is the U.S. government's official web portal to all federal, state and local government web resources and services.